Depesze METAR lotnisk w Polsce

EPWA EPMO EPKK EPLL EPWR EPKT EPGD EPPO EPRZ EPSC EPLB EPBY EPZG EPSY EPCE EPDA EPDE EPIR EPKS EPLK EPLY EPMB EPMI EPMM EPNA EPOK EPPR EPPW EPRA EPSN EPTM

METAR – format kodowanego raportu o pogodzie używany w meteorologii lotniczej i prognozie pogody. METAR jest akronimem od ang. Meteorological Aerodrome Report. Typowy METAR zawiera informację o temperaturze, ciśnieniu, temperaturze punktu rosy, sile i kierunku wiatru, opadzie, pokrywie chmur, wysokości podstawy chmur, widzialności, lecz może zawierać też inne informacje (np. stan dróg startowych).

Warszawa-Okęcie (EPWA)

METAR = EPWA 220500Z 12007KT CAVOK 23/18 Q1009 NOSIG

STACJA........... EPWA - Warszawa-Okęcie (WAW)
POMIAR........... Tue Jun 22, 07:00 CEST
WIATR............ wschodni południowo-wschodni (ESE) z prędkością 13 km/h
WIDZIALNOŚĆ...... powyżej 10 kilometrów
CHMURY........... bezchmurne niebo
TEMPERATURA...... 23°C
T.PUNKTU ROSY.... 18°C
WILGOTNOŚĆ....... 74%
CIŚNIENIE........ 1009 hPa
CIŚN.BEZWZGL..... 996 hPa
PROGNOZA......... bez nagłych zmian w ciągu 2h

Sprawdź też: Prognoza pogody Warszawa


Warszawa-Modlin (EPMO)

METAR = EPMO 220500Z 08005KT 060V120 CAVOK 23/18 Q1009 =

STACJA........... EPMO - Warszawa-Modlin (WMI)
POMIAR........... Tue Jun 22, 07:00 CEST
WIATR............ wschodni (E) z prędkością 9 km/h
WIDZIALNOŚĆ...... powyżej 10 kilometrów
CHMURY........... bezchmurne niebo
TEMPERATURA...... 23°C
T.PUNKTU ROSY.... 18°C
WILGOTNOŚĆ....... 74%
CIŚNIENIE........ 1009 hPa
CIŚN.BEZWZGL..... 997 hPa

Sprawdź też: Prognoza pogody Nowy Dwór Mazowiecki


Kraków-Balice (EPKK)

METAR = EPKK 220500Z VRB01KT CAVOK 22/18 Q1009

STACJA........... EPKK - Kraków-Balice (KRK)
POMIAR........... Tue Jun 22, 07:00 CEST
WIATR............ zmienny z prędkością 2 km/h
WIDZIALNOŚĆ...... powyżej 10 kilometrów
CHMURY........... bezchmurne niebo
TEMPERATURA...... 22°C
T.PUNKTU ROSY.... 18°C
WILGOTNOŚĆ....... 78%
CIŚNIENIE........ 1009 hPa
CIŚN.BEZWZGL..... 981 hPa

Sprawdź też: Prognoza pogody Kraków


Łódź-Lublinek (EPLL)

METAR = EPLL 220500Z VRB02KT CAVOK 22/16 Q1009

STACJA........... EPLL - Łódź-Lublinek (LCJ)
POMIAR........... Tue Jun 22, 07:00 CEST
WIATR............ zmienny z prędkością 4 km/h
WIDZIALNOŚĆ...... powyżej 10 kilometrów
CHMURY........... bezchmurne niebo
TEMPERATURA...... 22°C
T.PUNKTU ROSY.... 16°C
WILGOTNOŚĆ....... 69%
CIŚNIENIE........ 1009 hPa
CIŚN.BEZWZGL..... 988 hPa

Sprawdź też: Prognoza pogody Łódź


Wrocław-Strachowice (EPWR)

METAR = EPWR 220500Z 29007KT CAVOK 20/19 Q1009

STACJA........... EPWR - Wrocław-Strachowice (WRO)
POMIAR........... Tue Jun 22, 07:00 CEST
WIATR............ zachodni północno-zachodni (WNW) z prędkością 13 km/h
WIDZIALNOŚĆ...... powyżej 10 kilometrów
CHMURY........... bezchmurne niebo
TEMPERATURA...... 20°C
T.PUNKTU ROSY.... 19°C
WILGOTNOŚĆ....... 94%
CIŚNIENIE........ 1009 hPa
CIŚN.BEZWZGL..... 995 hPa

Sprawdź też: Prognoza pogody Wrocław


Katowice-Pyrzowice (EPKT)

METAR = EPKT 220500Z 09003KT 050V130 CAVOK 23/18 Q1009

STACJA........... EPKT - Katowice-Pyrzowice (KTW)
POMIAR........... Tue Jun 22, 07:00 CEST
WIATR............ wschodni (E) z prędkością 6 km/h
WIDZIALNOŚĆ...... powyżej 10 kilometrów
CHMURY........... bezchmurne niebo
TEMPERATURA...... 23°C
T.PUNKTU ROSY.... 18°C
WILGOTNOŚĆ....... 74%
CIŚNIENIE........ 1009 hPa
CIŚN.BEZWZGL..... 974 hPa

Sprawdź też: Prognoza pogody Katowice


Gdańsk (EPGD)

METAR = EPGD 220500Z 12008KT CAVOK 22/16 Q1008

STACJA........... EPGD - Gdańsk im. Lecha Wałęsy (GDN)
POMIAR........... Tue Jun 22, 07:00 CEST
WIATR............ wschodni południowo-wschodni (ESE) z prędkością 15 km/h
WIDZIALNOŚĆ...... powyżej 10 kilometrów
CHMURY........... bezchmurne niebo
TEMPERATURA...... 22°C
T.PUNKTU ROSY.... 16°C
WILGOTNOŚĆ....... 69%
CIŚNIENIE........ 1008 hPa
CIŚN.BEZWZGL..... 991 hPa

Sprawdź też: Prognoza pogody Gdańsk


Poznań-Ławica (EPPO)

METAR = EPPO 220500Z 33005KT CAVOK 22/20 Q1008

STACJA........... EPPO - Poznań-Ławica (POZ)
POMIAR........... Tue Jun 22, 07:00 CEST
WIATR............ północno północno-zachodni (NNW) z prędkością 9 km/h
WIDZIALNOŚĆ...... powyżej 10 kilometrów
CHMURY........... bezchmurne niebo
TEMPERATURA...... 22°C
T.PUNKTU ROSY.... 20°C
WILGOTNOŚĆ....... 88%
CIŚNIENIE........ 1008 hPa
CIŚN.BEZWZGL..... 997 hPa

Sprawdź też: Prognoza pogody Poznań


Rzeszów-Jasionka (EPRZ)

METAR = EPRZ 220500Z 10006KT CAVOK 22/19 Q1010

STACJA........... EPRZ - Rzeszów-Jasionka (RZE)
POMIAR........... Tue Jun 22, 07:00 CEST
WIATR............ wschodni (E) z prędkością 11 km/h
WIDZIALNOŚĆ...... powyżej 10 kilometrów
CHMURY........... bezchmurne niebo
TEMPERATURA...... 22°C
T.PUNKTU ROSY.... 19°C
WILGOTNOŚĆ....... 83%
CIŚNIENIE........ 1010 hPa
CIŚN.BEZWZGL..... 986 hPa

Sprawdź też: Prognoza pogody Rzeszów


Szczecin-Goleniów (EPSC)

METAR = EPSC 220500Z 33009KT 300V360 9999 FEW006 SCT008 19/17 Q1010

STACJA........... EPSC - Szczecin-Goleniów (SZZ)
POMIAR........... Tue Jun 22, 07:00 CEST
WIATR............ północno północno-zachodni (NNW) z prędkością 17 km/h
WIDZIALNOŚĆ...... powyżej 10 kilometrów
CHMURY........... zachmurzenie małe (3/8-4/8)
TEMPERATURA...... 19°C
T.PUNKTU ROSY.... 17°C
WILGOTNOŚĆ....... 88%
CIŚNIENIE........ 1010 hPa
CIŚN.BEZWZGL..... 1004 hPa

Sprawdź też: Prognoza pogody Szczecin


Lublin-Świdnik (EPLB)

METAR = EPLB 220500Z 12006KT CAVOK 22/19 Q1011 =

STACJA........... EPLB - Lublin-Świdnik (LUZ)
POMIAR........... Tue Jun 22, 07:00 CEST
WIATR............ wschodni południowo-wschodni (ESE) z prędkością 11 km/h
WIDZIALNOŚĆ...... powyżej 10 kilometrów
CHMURY........... bezchmurne niebo
TEMPERATURA...... 22°C
T.PUNKTU ROSY.... 19°C
WILGOTNOŚĆ....... 83%
CIŚNIENIE........ 1011 hPa
CIŚN.BEZWZGL..... 988 hPa

Sprawdź też: Prognoza pogody Lublin


Bydgoszcz-Szwederowo (EPBY)

METAR = EPBY 220500Z 26004KT 200V290 9999 TS SCT060CB 23/18 Q1008=

STACJA........... EPBY - Bydgoszcz-Szwederowo (BZG)
POMIAR........... Tue Jun 22, 07:00 CEST
WIATR............ zachodni (W) z prędkością 7 km/h
WIDZIALNOŚĆ...... powyżej 10 kilometrów
WARUNKI.......... burza 
CHMURY........... zachmurzenie małe (3/8-4/8)
TEMPERATURA...... 23°C
T.PUNKTU ROSY.... 18°C
WILGOTNOŚĆ....... 74%
CIŚNIENIE........ 1008 hPa
CIŚN.BEZWZGL..... 1000 hPa

Sprawdź też: Prognoza pogody Bydgoszcz


Zielona Góra-Babimost (EPZG)

METAR = EPZG 220500Z 29005KT 250V330 CAVOK 22/17 Q1009 =

STACJA........... EPZG - Zielona Góra-Babimost (IEG)
POMIAR........... Tue Jun 22, 07:00 CEST
WIATR............ zachodni północno-zachodni (WNW) z prędkością 9 km/h
WIDZIALNOŚĆ...... powyżej 10 kilometrów
CHMURY........... bezchmurne niebo
TEMPERATURA...... 22°C
T.PUNKTU ROSY.... 17°C
WILGOTNOŚĆ....... 73%
CIŚNIENIE........ 1009 hPa
CIŚN.BEZWZGL..... 1002 hPa

Sprawdź też: Prognoza pogody Zielona Góra


Szymany Olsztyn-Mazury (EPSY)

METAR = EPSY 220500Z 14005KT 090V170 CAVOK 23/17 Q1010=

STACJA........... EPSY - Olsztyn-Mazury (SZY)
POMIAR........... Tue Jun 22, 07:00 CEST
WIATR............ południowo wschodni (SE) z prędkością 9 km/h
WIDZIALNOŚĆ...... powyżej 10 kilometrów
CHMURY........... bezchmurne niebo
TEMPERATURA...... 23°C
T.PUNKTU ROSY.... 17°C
WILGOTNOŚĆ....... 69%
CIŚNIENIE........ 1010 hPa
CIŚN.BEZWZGL..... 994 hPa

Sprawdź też: Prognoza pogody Olsztyn


Cewice (EPCE)

METAR = EPCE 220500Z VRB01KT 9999 BKN078 24/16 Q1008 RMK 239 062 6/6=

STACJA........... EPCE - Cewice
POMIAR........... Tue Jun 22, 07:00 CEST
WIATR............ zmienny z prędkością 2 km/h
WIDZIALNOŚĆ...... powyżej 10 kilometrów
CHMURY........... zachmurzenie średnie (5/8-7/8)
TEMPERATURA...... 24°C
T.PUNKTU ROSY.... 16°C
WILGOTNOŚĆ....... 61%
CIŚNIENIE........ 1008 hPa
CIŚN.BEZWZGL..... 991 hPa

Darłowo (EPDA)

METAR = EPDA 220500Z 29007KT 260V320 9999 FEW007 20/18 Q1009 RMK 199 090 1/1 LTG DSNT NE=

STACJA........... EPDA - Darłowo
POMIAR........... Tue Jun 22, 07:00 CEST
WIATR............ zachodni północno-zachodni (WNW) z prędkością 13 km/h
WIDZIALNOŚĆ...... powyżej 10 kilometrów
CHMURY........... zachmurzenie niewielkie (1/8-2/8)
TEMPERATURA...... 20°C
T.PUNKTU ROSY.... 18°C
WILGOTNOŚĆ....... 88%
CIŚNIENIE........ 1009 hPa
CIŚN.BEZWZGL..... 1009 hPa

Dęblin (EPDE)

METAR = EPDE 220500Z 08006KT CAVOK 22/18 Q1010 RMK 220 080 0/0=

STACJA........... EPDE - Dęblin
POMIAR........... Tue Jun 22, 07:00 CEST
WIATR............ wschodni (E) z prędkością 11 km/h
WIDZIALNOŚĆ...... powyżej 10 kilometrów
CHMURY........... bezchmurne niebo
TEMPERATURA...... 22°C
T.PUNKTU ROSY.... 18°C
WILGOTNOŚĆ....... 78%
CIŚNIENIE........ 1010 hPa
CIŚN.BEZWZGL..... 996 hPa

Inowrocław-Latkowo (EPIR)

METAR = EPIR 220500Z 20002KT 9999 FEW017 BKN200 23/18 Q1008 RMK 227 074 6/2=

STACJA........... EPIR - Inowrocław-Latkowo
POMIAR........... Tue Jun 22, 07:00 CEST
WIATR............ południowo południowo-zachodni  (SSW) z prędkością 4 km/h
WIDZIALNOŚĆ...... powyżej 10 kilometrów
CHMURY........... zachmurzenie średnie (5/8-7/8)
TEMPERATURA...... 23°C
T.PUNKTU ROSY.... 18°C
WILGOTNOŚĆ....... 74%
CIŚNIENIE........ 1008 hPa
CIŚN.BEZWZGL..... 999 hPa

Poznań-Krzesiny (EPKS)

METAR = EPKS 220500Z 31004KT CAVOK 23/20 Q1008 RMK 225 088 5/5=

STACJA........... EPKS - Poznań-Krzesiny
POMIAR........... Tue Jun 22, 07:00 CEST
WIATR............ północno zachodni (NW) z prędkością 7 km/h
WIDZIALNOŚĆ...... powyżej 10 kilometrów
CHMURY........... bezchmurne niebo
TEMPERATURA...... 23°C
T.PUNKTU ROSY.... 20°C
WILGOTNOŚĆ....... 83%
CIŚNIENIE........ 1008 hPa
CIŚN.BEZWZGL..... 998 hPa

Łask (EPLK)

METAR = EPLK 220500Z 13003KT 100V170 CAVOK 22/17 Q1008 RMK 220 073 3/1=

STACJA........... EPLK - Łask
POMIAR........... Tue Jun 22, 07:00 CEST
WIATR............ południowo wschodni (SE) z prędkością 6 km/h
WIDZIALNOŚĆ...... powyżej 10 kilometrów
CHMURY........... bezchmurne niebo
TEMPERATURA...... 22°C
T.PUNKTU ROSY.... 17°C
WILGOTNOŚĆ....... 73%
CIŚNIENIE........ 1008 hPa
CIŚN.BEZWZGL..... 986 hPa

Łęczyca (EPLY)

METAR = EPLY 220500Z 12004KT CAVOK 23/17 Q1008 RMK 233 069 3/1=

STACJA........... EPLY - Łęczyca
POMIAR........... Tue Jun 22, 07:00 CEST
WIATR............ wschodni południowo-wschodni (ESE) z prędkością 7 km/h
WIDZIALNOŚĆ...... powyżej 10 kilometrów
CHMURY........... bezchmurne niebo
TEMPERATURA...... 23°C
T.PUNKTU ROSY.... 17°C
WILGOTNOŚĆ....... 69%
CIŚNIENIE........ 1008 hPa
CIŚN.BEZWZGL..... 995 hPa

Malbork (EPMB)

METAR = EPMB 220500Z 09004KT CAVOK 23/19 Q1008 RMK 230 077 2/2=

STACJA........... EPMB - Malbork
POMIAR........... Tue Jun 22, 07:00 CEST
WIATR............ wschodni (E) z prędkością 7 km/h
WIDZIALNOŚĆ...... powyżej 10 kilometrów
CHMURY........... bezchmurne niebo
TEMPERATURA...... 23°C
T.PUNKTU ROSY.... 19°C
WILGOTNOŚĆ....... 78%
CIŚNIENIE........ 1008 hPa
CIŚN.BEZWZGL..... 1007 hPa

Mirosławiec (EPMI)

METAR = EPMI 220500Z 32008KT 8000 SCT050 BKN200 20/18 Q1009 RMK 197 090 5/3=

STACJA........... EPMI - Mirosławiec
POMIAR........... Tue Jun 22, 07:00 CEST
WIATR............ północno zachodni (NW) z prędkością 15 km/h
WIDZIALNOŚĆ...... 8000 metrów
CHMURY........... zachmurzenie średnie (5/8-7/8)
TEMPERATURA...... 20°C
T.PUNKTU ROSY.... 18°C
WILGOTNOŚĆ....... 88%
CIŚNIENIE........ 1009 hPa
CIŚN.BEZWZGL..... 992 hPa

Mińsk Mazowiecki (EPMM)

METAR = EPMM 220500Z 13007KT 090V150 CAVOK 22/19 Q1010 RMK 221 085 0/0=

STACJA........... EPMM - Mińsk Mazowiecki
POMIAR........... Tue Jun 22, 07:00 CEST
WIATR............ południowo wschodni (SE) z prędkością 13 km/h
WIDZIALNOŚĆ...... powyżej 10 kilometrów
CHMURY........... bezchmurne niebo
TEMPERATURA...... 22°C
T.PUNKTU ROSY.... 19°C
WILGOTNOŚĆ....... 83%
CIŚNIENIE........ 1010 hPa
CIŚN.BEZWZGL..... 989 hPa

Nadarzyce (EPNA)

METAR = EPNA 220500Z 28006KT CAVOK 20/18 Q1009 RMK 196 090 3/3=

STACJA........... EPNA - Nadarzyce
POMIAR........... Tue Jun 22, 07:00 CEST
WIATR............ zachodni (W) z prędkością 11 km/h
WIDZIALNOŚĆ...... powyżej 10 kilometrów
CHMURY........... bezchmurne niebo
TEMPERATURA...... 20°C
T.PUNKTU ROSY.... 18°C
WILGOTNOŚĆ....... 88%
CIŚNIENIE........ 1009 hPa
CIŚN.BEZWZGL..... 994 hPa

Gdynia-Kosakowo (EPOK)

METAR = EPOK 220500Z 14008KT CAVOK 23/16 Q1007 RMK 234 065 0/0=

STACJA........... EPOK - Gdynia-Kosakowo
POMIAR........... Tue Jun 22, 07:00 CEST
WIATR............ południowo wschodni (SE) z prędkością 15 km/h
WIDZIALNOŚĆ...... powyżej 10 kilometrów
CHMURY........... bezchmurne niebo
TEMPERATURA...... 23°C
T.PUNKTU ROSY.... 16°C
WILGOTNOŚĆ....... 65%
CIŚNIENIE........ 1007 hPa
CIŚN.BEZWZGL..... 1002 hPa

Pruszcz Gdański (EPPR)

METAR = EPPR 220500Z 14002KT CAVOK 22/16 Q1008 RMK 217 069 1/1=

STACJA........... EPPR - Pruszcz Gdański
POMIAR........... Tue Jun 22, 07:00 CEST
WIATR............ południowo wschodni (SE) z prędkością 4 km/h
WIDZIALNOŚĆ...... powyżej 10 kilometrów
CHMURY........... bezchmurne niebo
TEMPERATURA...... 22°C
T.PUNKTU ROSY.... 16°C
WILGOTNOŚĆ....... 69%
CIŚNIENIE........ 1008 hPa
CIŚN.BEZWZGL..... 1008 hPa

Powidz (EPPW)

METAR = EPPW 220500Z 32002KT CAVOK 23/19 Q1008 RMK 231 077 5/3=

STACJA........... EPPW - Powidz
POMIAR........... Tue Jun 22, 07:00 CEST
WIATR............ północno zachodni (NW) z prędkością 4 km/h
WIDZIALNOŚĆ...... powyżej 10 kilometrów
CHMURY........... bezchmurne niebo
TEMPERATURA...... 23°C
T.PUNKTU ROSY.... 19°C
WILGOTNOŚĆ....... 78%
CIŚNIENIE........ 1008 hPa
CIŚN.BEZWZGL..... 995 hPa

Radom-Sadków (EPRA)

METAR = EPRA 220500Z 12006KT CAVOK 21/18 Q1009 RMK 214 083 0/0=

STACJA........... EPRA - Radom-Sadków
POMIAR........... Tue Jun 22, 07:00 CEST
WIATR............ wschodni południowo-wschodni (ESE) z prędkością 11 km/h
WIDZIALNOŚĆ...... powyżej 10 kilometrów
CHMURY........... bezchmurne niebo
TEMPERATURA...... 21°C
T.PUNKTU ROSY.... 18°C
WILGOTNOŚĆ....... 83%
CIŚNIENIE........ 1009 hPa
CIŚN.BEZWZGL..... 988 hPa

Świdwin (EPSN)

METAR = EPSN 220500Z 33009KT 6000 OVC004 18/18 Q1009 RMK 183 097 8/8=

STACJA........... EPSN - Świdwin
POMIAR........... Tue Jun 22, 07:00 CEST
WIATR............ północno północno-zachodni (NNW) z prędkością 17 km/h
WIDZIALNOŚĆ...... 6000 metrów
CHMURY........... zachmurzenie całkowite (8/8)
TEMPERATURA...... 18°C
T.PUNKTU ROSY.... 18°C
WILGOTNOŚĆ....... 100%
CIŚNIENIE........ 1009 hPa
CIŚN.BEZWZGL..... 995 hPa

Tomaszów Mazowiecki (EPTM)

METAR = EPTM 220500Z 09002KT CAVOK 22/17 Q1009 RMK 224 070 0/0=

STACJA........... EPTM - Tomaszów Mazowiecki
POMIAR........... Tue Jun 22, 07:00 CEST
WIATR............ wschodni (E) z prędkością 4 km/h
WIDZIALNOŚĆ...... powyżej 10 kilometrów
CHMURY........... bezchmurne niebo
TEMPERATURA...... 22°C
T.PUNKTU ROSY.... 17°C
WILGOTNOŚĆ....... 73%
CIŚNIENIE........ 1009 hPa
CIŚN.BEZWZGL..... 989 hPa